M I D A S
Marine Information and Data Acquisition System
Tripno 461 of the Zeeleeuw from 2003-04-14 08:48:46 to 2003-04-14 14:26:54
Back to CruiseResearch ActivitiesStationsMapUnderway DataData graphs

EquipmentUnitsComment
TimeDGPSUTC
LatitudeDGPSDM.mWGS84
LongitudeDGPSDM.mWGS84
HeadingGyrodeg 
SOGDGPSknotsSpeed over ground
COGDGPSdegCourse over ground
DepthEcho soundermeters200 kHz
Missing or incorrect values are displayed as -999
Navigation data collected by the RV Zeeleeuw from 2003-04-14 08:48:46 to 2003-04-14 14:26:54
                                                                                    Next 1000 lines
Time Latitude Longitude Heading SOG COG Depth
2003-04-14 08:48:56 51°13.6 2°56.1 109.4 0.1 199 9.6
2003-04-14 08:49:02 51°13.6 2°56.1 108.8 0.1 221 9.6
2003-04-14 08:49:06 51°13.6 2°56.1 108.3 0.1 260 9.6
2003-04-14 08:49:12 51°13.6 2°56.1 108.1 0.4 288 9.6
2003-04-14 08:49:16 51°13.6 2°56.1 108 0.7 287 9.6
2003-04-14 08:49:22 51°13.6 2°56.1 108.1 1.2 289 9.6
2003-04-14 08:49:26 51°13.6 2°56.09 108.8 1.6 289 9.8
2003-04-14 08:49:32 51°13.6 2°56.09 109.4 2.2 289 -999
2003-04-14 08:49:36 51°13.6 2°56.08 110 2.5 288 -999
2003-04-14 08:49:42 51°13.61 2°56.07 110.3 3 289 -999
2003-04-14 08:49:46 51°13.61 2°56.07 110.7 3.2 289 -999
2003-04-14 08:49:52 51°13.61 2°56.06 110.9 3.4 288 -999
2003-04-14 08:49:56 51°13.61 2°56.05 111.1 3.6 288 -999
2003-04-14 08:50:02 51°13.61 2°56.04 111.7 3.9 288 -999
2003-04-14 08:50:06 51°13.61 2°56.03 112.5 4 288 -999
2003-04-14 08:50:12 51°13.62 2°56.02 113.8 4.1 288 -999
2003-04-14 08:50:16 51°13.62 2°56.02 115.1 4.2 289 -999
2003-04-14 08:50:22 51°13.62 2°56.01 116.1 4.3 290 -999
2003-04-14 08:50:26 51°13.62 2°56 117.2 4.3 291 -999
2003-04-14 08:50:32 51°13.62 2°55.99 118.2 4.4 292 -999
2003-04-14 08:50:36 51°13.63 2°55.98 119.2 4.4 293 -999
2003-04-14 08:50:42 51°13.63 2°55.97 120.1 4.5 295 -999
2003-04-14 08:50:46 51°13.63 2°55.96 121 4.6 296 -999
2003-04-14 08:50:52 51°13.64 2°55.95 121.3 4.7 297 -999
2003-04-14 08:50:56 51°13.64 2°55.94 121.7 4.7 298 -999
2003-04-14 08:51:02 51°13.64 2°55.93 121.7 4.8 298 -999
2003-04-14 08:51:06 51°13.64 2°55.92 121.7 4.9 299 -999
2003-04-14 08:51:12 51°13.65 2°55.91 121.7 4.9 299 -999
2003-04-14 08:51:16 51°13.65 2°55.91 121.2 4.9 299 -999
2003-04-14 08:51:22 51°13.65 2°55.89 120.6 4.9 298 -999
2003-04-14 08:51:26 51°13.66 2°55.89 119.8 5 298 -999
2003-04-14 08:51:32 51°13.66 2°55.87 118.9 5 297 -999
2003-04-14 08:51:36 51°13.66 2°55.87 117.8 5 297 -999
2003-04-14 08:51:42 51°13.67 2°55.85 116.8 5 296 -999
2003-04-14 08:51:46 51°13.67 2°55.85 115.8 4.9 295 -999
2003-04-14 08:51:52 51°13.67 2°55.84 114.6 4.8 294 -999
2003-04-14 08:51:56 51°13.67 2°55.83 113.5 4.7 293 -999
2003-04-14 08:52:02 51°13.68 2°55.82 112.1 4.5 292 -999
2003-04-14 08:52:06 51°13.68 2°55.81 110.7 4.4 291 -999
2003-04-14 08:52:12 51°13.68 2°55.8 109 4.2 290 -999
2003-04-14 08:52:16 51°13.68 2°55.79 107.2 4.1 289 -999
2003-04-14 08:52:22 51°13.68 2°55.78 105.2 4 288 -999
2003-04-14 08:52:26 51°13.68 2°55.78 102.9 3.9 286 -999
2003-04-14 08:52:32 51°13.69 2°55.77 101.1 3.8 285 -999
2003-04-14 08:52:36 51°13.69 2°55.76 99 3.6 284 -999
2003-04-14 08:52:42 51°13.69 2°55.75 95.8 3.1 283 -999
2003-04-14 08:52:46 51°13.69 2°55.75 91.7 2.6 282 -999
2003-04-14 08:52:52 51°13.69 2°55.75 86.8 1.8 283 -999
2003-04-14 08:52:56 51°13.69 2°55.75 82.7 1.4 284 13.5
2003-04-14 08:53:02 51°13.69 2°55.74 79.1 1 286 13.5
2003-04-14 08:53:06 51°13.69 2°55.74 75.9 0.8 289 13.6
2003-04-14 08:53:12 51°13.69 2°55.74 72.3 0.7 295 13.5
2003-04-14 08:53:16 51°13.69 2°55.74 68.7 0.6 302 13.6
2003-04-14 08:53:22 51°13.69 2°55.74 65.3 0.5 315 13.5
2003-04-14 08:53:26 51°13.69 2°55.74 61.8 0.5 327 13.6
2003-04-14 08:53:32 51°13.69 2°55.74 58.2 0.5 343 13.6
2003-04-14 08:53:36 51°13.69 2°55.74 54.5 0.6 352 13.5
2003-04-14 08:53:42 51°13.69 2°55.74 50.7 0.7 1 13.6
2003-04-14 08:53:46 51°13.7 2°55.74 46.5 0.8 2 13.5
2003-04-14 08:53:52 51°13.7 2°55.74 42.7 0.8 2 13.6
2003-04-14 08:53:56 51°13.7 2°55.74 38.9 0.9 2 13.6
2003-04-14 08:54:02 51°13.7 2°55.74 35.2 0.9 1 13.6
2003-04-14 08:54:06 51°13.7 2°55.74 31.4 1   13.5
2003-04-14 08:54:12 51°13.7 2°55.74 27.5 1.1 358 13.6
2003-04-14 08:54:16 51°13.7 2°55.74 23.8 1.1 357 13.5
2003-04-14 08:54:22 51°13.71 2°55.74 20 1.2 355 13.5
2003-04-14 08:54:26 51°13.71 2°55.74 16.2 1.3 354 13.5
2003-04-14 08:54:32 51°13.71 2°55.74 12.6 1.4 352 13.4
2003-04-14 08:54:36 51°13.71 2°55.74 9 1.5 350 13.4
2003-04-14 08:54:42 51°13.71 2°55.74 5.3 1.6 347 13.3
2003-04-14 08:54:46 51°13.72 2°55.74 1.2 1.7 346 13.1
2003-04-14 08:54:52 51°13.72 2°55.73 356.7 2 343 12.9
2003-04-14 08:54:56 51°13.72 2°55.73 352 2.1 341 12.4
2003-04-14 08:55:02 51°13.73 2°55.73 347.3 2.4 337 12
2003-04-14 08:55:06 51°13.73 2°55.73 344 2.6 336 11.8
2003-04-14 08:55:12 51°13.73 2°55.72 341.8 2.8 334 11.8
2003-04-14 08:55:16 51°13.74 2°55.72 340.2 3 333 11.8
2003-04-14 08:55:22 51°13.74 2°55.72 339.2 3.2 332 11.7
2003-04-14 08:55:26 51°13.75 2°55.71 338.8 3.5 332 11.7
2003-04-14 08:55:32 51°13.75 2°55.71 338.2 4 331 11.6
2003-04-14 08:55:36 51°13.76 2°55.7 337.5 4.3 331 11.6
2003-04-14 08:55:42 51°13.77 2°55.7 336.5 4.8 330 11.6
2003-04-14 08:55:46 51°13.77 2°55.69 336 5.1 330 11.6
2003-04-14 08:55:52 51°13.78 2°55.68 336 5.5 330 11.8
2003-04-14 08:55:56 51°13.78 2°55.68 335.7 5.8 330 11.9
2003-04-14 08:56:02 51°13.79 2°55.67 335.3 6.1 330 11.9
2003-04-14 08:56:06 51°13.8 2°55.66 335 6.3 330 12
2003-04-14 08:56:12 51°13.81 2°55.66 335.1 6.6 330 12
2003-04-14 08:56:16 51°13.82 2°55.65 336 6.7 331 12
2003-04-14 08:56:22 51°13.83 2°55.64 336.7 6.9 332 12
2003-04-14 08:56:26 51°13.83 2°55.64 337 7 332 12.1
2003-04-14 08:56:32 51°13.85 2°55.63 337.2 7.2 332 12
2003-04-14 08:56:36 51°13.85 2°55.62 337.2 7.3 333 12
2003-04-14 08:56:42 51°13.86 2°55.61 337.4 7.4 333 11.9
2003-04-14 08:56:46 51°13.87 2°55.61 338.2 7.5 333 12
2003-04-14 08:56:52 51°13.88 2°55.6 338.9 7.6 334 12
2003-04-14 08:56:56 51°13.89 2°55.59 339.4 7.8 334 12
2003-04-14 08:57:02 51°13.9 2°55.58 339.6 8 335 12
2003-04-14 08:57:06 51°13.91 2°55.57 340 8.2 335 12
2003-04-14 08:57:12 51°13.93 2°55.57 340.4 8.5 335 12
2003-04-14 08:57:16 51°13.93 2°55.56 340 8.6 335 11.9
2003-04-14 08:57:22 51°13.95 2°55.55 338.6 8.8 334 11.9
2003-04-14 08:57:26 51°13.96 2°55.54 339.2 8.9 334 11.9
2003-04-14 08:57:32 51°13.97 2°55.53 339.6 9 334 11.9
2003-04-14 08:57:36 51°13.98 2°55.52 339.6 9.1 334 12
2003-04-14 08:57:42 51°13.99 2°55.51 339.9 9.2 335 11.9
2003-04-14 08:57:46 51°14 2°55.51 340 9.3 335 12
2003-04-14 08:57:52 51°14.02 2°55.5 339.8 9.3 335 12
2003-04-14 08:57:56 51°14.03 2°55.49 339.8 9.4 335 12
2003-04-14 08:58:02 51°14.04 2°55.48 340 9.4 335 12
2003-04-14 08:58:06 51°14.05 2°55.47 339.6 9.4 334 11.8
2003-04-14 08:58:12 51°14.06 2°55.46 339.6 9.5 334 11.7
2003-04-14 08:58:16 51°14.07 2°55.45 340.3 9.5 335 11.5
2003-04-14 08:58:22 51°14.09 2°55.44 340.4 9.5 335 11.7
2003-04-14 08:58:26 51°14.1 2°55.43 340.1 9.5 334 12.1
2003-04-14 08:58:32 51°14.11 2°55.42 340 9.5 334 12
2003-04-14 08:58:36 51°14.12 2°55.42 340 9.5 334 12.1
2003-04-14 08:58:42 51°14.14 2°55.4 339.6 9.5 334 12.1
2003-04-14 08:58:46 51°14.15 2°55.4 338.9 9.5 333 12.1
2003-04-14 08:58:52 51°14.16 2°55.39 338.2 9.5 333 12.2
2003-04-14 08:58:56 51°14.17 2°55.38 337.5 9.5 332 12.2
2003-04-14 08:59:02 51°14.18 2°55.36 336.2 9.5 330 12.3
2003-04-14 08:59:06 51°14.19 2°55.35 334.9 9.5 329 12.3
2003-04-14 08:59:12 51°14.2 2°55.34 332.4 9.5 327 12.2
2003-04-14 08:59:16 51°14.21 2°55.33 330.2 9.5 325 12.2
2003-04-14 08:59:22 51°14.22 2°55.31 328.7 9.5 323 12.2
2003-04-14 08:59:26 51°14.23 2°55.3 327.5 9.6 322 12.3
2003-04-14 08:59:32 51°14.24 2°55.29 325.9 9.6 320 12.4
2003-04-14 08:59:36 51°14.25 2°55.27 323.7 9.6 318 12.4
2003-04-14 08:59:42 51°14.26 2°55.26 321.8 9.6 316 12.4
2003-04-14 08:59:46 51°14.27 2°55.24 319.8 9.6 315 12.3
2003-04-14 08:59:52 51°14.28 2°55.22 317.9 9.7 313 12.4
2003-04-14 08:59:56 51°14.29 2°55.21 316.2 9.7 312 12.4
2003-04-14 09:00:02 51°14.3 2°55.19 315.5 9.7 311 12.4
2003-04-14 09:00:06 51°14.31 2°55.18 315.3 9.6 310 12.2
2003-04-14 09:00:12 51°14.32 2°55.16 314.4 9.6 310 12.3
2003-04-14 09:00:16 51°14.32 2°55.15 313.3 9.6 309 12.3
2003-04-14 09:00:22 51°14.33 2°55.13 312.4 9.6 308 12.3
2003-04-14 09:00:26 51°14.34 2°55.11 312 9.6 307 12.3
2003-04-14 09:00:32 51°14.35 2°55.09 311.1 9.6 306 12
2003-04-14 09:00:36 51°14.35 2°55.08 309.6 9.6 305 12.3
2003-04-14 09:00:40 51°14.36 2°55.06 309.2 9.6 306 12.7
2003-04-14 09:00:46 51°14.37 2°55.05 311.3 9.6 309 12.7
2003-04-14 09:00:52 51°14.38 2°55.03 316.3 9.6 316 12.6
2003-04-14 09:00:56 51°14.39 2°55.02 321.5 9.6 322 12.7
2003-04-14 09:01:02 51°14.41 2°55.01 327.1 9.7 329 12.6
2003-04-14 09:01:06 51°14.42 2°55 330.3 9.8 333 12.6
2003-04-14 09:01:12 51°14.43 2°54.99 332.4 9.8 336 12.4
2003-04-14 09:01:16 51°14.44 2°54.99 333.4 9.9 337 12.9
2003-04-14 09:01:22 51°14.46 2°54.98 334.1 9.9 337 12.3
2003-04-14 09:01:26 51°14.47 2°54.97 334.1 9.9 337 12.2
2003-04-14 09:01:32 51°14.48 2°54.96 333.8 9.9 337 12.1
2003-04-14 09:01:36 51°14.49 2°54.95 333.8 9.9 337 12.1
2003-04-14 09:01:42 51°14.51 2°54.94 334.5 10 338 11.8
2003-04-14 09:01:46 51°14.52 2°54.94 335.1 10 338 11.9
2003-04-14 09:01:52 51°14.54 2°54.93 336 10 339 11.8
2003-04-14 09:01:56 51°14.55 2°54.92 336.8 10 340 11.8
2003-04-14 09:02:02 51°14.56 2°54.91 337.4 10 340 11.8
2003-04-14 09:02:06 51°14.57 2°54.91 337.4 10 340 11.8
2003-04-14 09:02:12 51°14.59 2°54.9 336.7 10 339 11.8
2003-04-14 09:02:16 51°14.6 2°54.89 335.8 10 339 11.7
2003-04-14 09:02:22 51°14.61 2°54.88 334.4 9.9 337 11.8
2003-04-14 09:02:26 51°14.62 2°54.87 333.9 9.9 337 11.7
2003-04-14 09:02:32 51°14.64 2°54.86 333.2 9.9 336 11.7
2003-04-14 09:02:36 51°14.65 2°54.85 333.7 9.8 337 11.7
2003-04-14 09:02:42 51°14.66 2°54.85 335.4 9.4 339 11.7
2003-04-14 09:02:46 51°14.67 2°54.84 337.5 9.1 341 11.7
2003-04-14 09:02:52 51°14.68 2°54.84 340.1 8.6 344 11.7
2003-04-14 09:02:56 51°14.69 2°54.84 342.9 8.3 347 11.7
2003-04-14 09:03:02 51°14.71 2°54.83 346.2 7.9 351 11.6
2003-04-14 09:03:06 51°14.71 2°54.83 349.5 7.7 353 11.7
2003-04-14 09:03:12 51°14.73 2°54.83 352.7 7.3 357 11.7
2003-04-14 09:03:16 51°14.73 2°54.83 355.8 7.1   11.6
2003-04-14 09:03:22 51°14.74 2°54.83 359.3 6.8 3 11.6
2003-04-14 09:03:26 51°14.75 2°54.84 1.9 6.7 5 11.7
2003-04-14 09:03:30 51°14.76 2°54.84 3.4 6.4 7 11.6
2003-04-14 09:03:36 51°14.77 2°54.84 5.2 6.3 9 11.6
2003-04-14 09:03:42 51°14.78 2°54.84 7 6 11 11.5
2003-04-14 09:03:46 51°14.78 2°54.85 8.2 5.9 12 11.5
2003-04-14 09:03:52 51°14.79 2°54.85 8.9 5.7 13 11.4
2003-04-14 09:03:56 51°14.8 2°54.85 9.4 5.6 13 11.6
2003-04-14 09:04:02 51°14.81 2°54.85 9.9 5.4 14 11.5
2003-04-14 09:04:06 51°14.81 2°54.86 10.2 5.4 15 11.4
2003-04-14 09:04:12 51°14.82 2°54.86 10.7 5.2 16 11.4
2003-04-14 09:04:16 51°14.83 2°54.86 11 5.1 16 11.4
2003-04-14 09:04:22 51°14.83 2°54.87 11.5 5 16 11.4
2003-04-14 09:04:26 51°14.84 2°54.87 11.6 4.9 16 11.5
2003-04-14 09:04:32 51°14.85 2°54.87 11.6 4.8 16 11.4
2003-04-14 09:04:36 51°14.85 2°54.87 11.4 4.7 16 11.5
2003-04-14 09:04:42 51°14.86 2°54.88 11.2 4.6 16 11.4
2003-04-14 09:04:46 51°14.86 2°54.88 11 4.6 16 11.5
2003-04-14 09:04:52 51°14.87 2°54.88 11 4.5 17 11.5
2003-04-14 09:04:56 51°14.88 2°54.89 11 4.5 17 11.4
2003-04-14 09:05:02 51°14.88 2°54.89 11 4.4 17 11.5
2003-04-14 09:05:06 51°14.89 2°54.89 11 4.3 18 11.5
2003-04-14 09:05:12 51°14.89 2°54.9 11 4.3 18 11.4
2003-04-14 09:05:16 51°14.9 2°54.9 11 4.2 18 11.5
2003-04-14 09:05:22 51°14.9 2°54.9 11 4.2 19 11.4
2003-04-14 09:05:26 51°14.91 2°54.9 11 4.1 19 11.4
2003-04-14 09:05:32 51°14.92 2°54.91 10.8 4.1 19 11.4
2003-04-14 09:05:36 51°14.92 2°54.91 10.7 4 19 11.4
2003-04-14 09:05:42 51°14.93 2°54.91 10.3 4 19 11.4
2003-04-14 09:05:46 51°14.93 2°54.92 10 3.9 18 11.3
2003-04-14 09:05:52 51°14.94 2°54.92 9.5 3.9 18 11.4
2003-04-14 09:05:56 51°14.94 2°54.92 9.2 3.9 18 11.3
2003-04-14 09:06:02 51°14.95 2°54.92 8.9 3.8 18 11.4
2003-04-14 09:06:06 51°14.95 2°54.93 8.5 3.7 18 11.4
2003-04-14 09:06:12 51°14.96 2°54.93 8 3.7 18 11.5
2003-04-14 09:06:16 51°14.96 2°54.93 7.8 3.7 18 11.3
2003-04-14 09:06:22 51°14.97 2°54.93 7.4 3.6 18 11.3
2003-04-14 09:06:26 51°14.97 2°54.94 7.1 3.6 17 11.3
2003-04-14 09:06:32 51°14.97 2°54.94 6.7 3.6 17 11.3
2003-04-14 09:06:36 51°14.98 2°54.94 6.7 3.6 17 11.3
2003-04-14 09:06:42 51°14.98 2°54.94 6.6 3.5 17 11.3
2003-04-14 09:06:46 51°14.99 2°54.94 6.6 3.5 17 11.4
2003-04-14 09:06:52 51°14.99 2°54.95 6.6 3.5 17 11.4
2003-04-14 09:06:56 51°15 2°54.95 6.8 3.5 17 11.3
2003-04-14 09:07:02 51°15 2°54.95 6.9 3.5 18 11.3
2003-04-14 09:07:06 51°15.01 2°54.95 7 3.4 18 11.4
2003-04-14 09:07:12 51°15.01 2°54.96 7 3.4 18 11.3
2003-04-14 09:07:16 51°15.01 2°54.96 6.7 3.4 17 11.3
2003-04-14 09:07:22 51°15.02 2°54.96 6.2 3.7 14 11.4
2003-04-14 09:07:26 51°15.03 2°54.96 3.5 4.1 11 11.3
2003-04-14 09:07:32 51°15.04 2°54.96 358.1 4.7 5 11.3
2003-04-14 09:07:36 51°15.04 2°54.96 351.5 5.2   11.3
2003-04-14 09:07:42 51°15.05 2°54.96 344.6 5.8 352 11.4
2003-04-14 09:07:46 51°15.06 2°54.95 340.3 6.3 348 11.3
2003-04-14 09:07:52 51°15.07 2°54.95 337.5 7 343 11.3
2003-04-14 09:07:56 51°15.08 2°54.94 335.5 7.5 341 11.1
2003-04-14 09:08:02 51°15.09 2°54.93 333 8.3 336 10.9
2003-04-14 09:08:06 51°15.1 2°54.92 330 8.8 333 10.8
2003-04-14 09:08:12 51°15.12 2°54.91 326.6 9.5 329 10.8
2003-04-14 09:08:16 51°15.13 2°54.9 323.7 9.9 327 10.7
2003-04-14 09:08:22 51°15.14 2°54.88 322.7 10.4 325 10.6
2003-04-14 09:08:26 51°15.15 2°54.87 322.6 10.7 324 10.6
2003-04-14 09:08:32 51°15.16 2°54.85 322.2 11.1 324 10.5
2003-04-14 09:08:36 51°15.18 2°54.84 322.2 11.3 324 10.6
2003-04-14 09:08:42 51°15.19 2°54.82 322.6 11.5 324 10.5
2003-04-14 09:08:46 51°15.2 2°54.81 322.9 11.7 324 10.5
2003-04-14 09:08:52 51°15.22 2°54.79 322.9 11.9 324 10.5
2003-04-14 09:08:56 51°15.23 2°54.78 322.9 12 324 10.6
2003-04-14 09:09:02 51°15.24 2°54.76 322.7 12.1 324 10.7
2003-04-14 09:09:06 51°15.26 2°54.74 322.5 12.2 324 10.8
2003-04-14 09:09:12 51°15.27 2°54.73 322.5 12.2 323 10.8
2003-04-14 09:09:16 51°15.28 2°54.71 322.6 12.3 323 11
2003-04-14 09:09:22 51°15.3 2°54.69 322.8 12.3 323 10.9
2003-04-14 09:09:26 51°15.31 2°54.68 322.9 12.3 323 11.1
2003-04-14 09:09:32 51°15.33 2°54.66 322.9 12.3 323 11.2
2003-04-14 09:09:36 51°15.34 2°54.65 323 12.3 323 11.2
2003-04-14 09:09:42 51°15.35 2°54.63 323 12.3 323 11.2
2003-04-14 09:09:46 51°15.36 2°54.61 322.9 12.3 323 11.3
2003-04-14 09:09:52 51°15.38 2°54.59 322.8 12.3 323 11.4
2003-04-14 09:09:56 51°15.39 2°54.58 322.9 12.3 323 11.4
2003-04-14 09:10:02 51°15.41 2°54.56 323 12.3 323 11.4
2003-04-14 09:10:06 51°15.42 2°54.55 323.1 12.3 323 11.5
2003-04-14 09:10:12 51°15.44 2°54.53 322.9 12.3 323 11.6
2003-04-14 09:10:16 51°15.45 2°54.51 322.9 12.3 322 11.6
2003-04-14 09:10:22 51°15.46 2°54.49 322.7 12.3 322 11.6
2003-04-14 09:10:26 51°15.47 2°54.48 322.8 12.3 322 11.7
2003-04-14 09:10:32 51°15.49 2°54.46 322.9 12.3 322 11.8
2003-04-14 09:10:36 51°15.5 2°54.45 323 12.3 322 11.8
2003-04-14 09:10:42 51°15.52 2°54.43 322.9 12.3 322 11.8
2003-04-14 09:10:46 51°15.53 2°54.42 322.9 12.3 322 11.9
2003-04-14 09:10:52 51°15.54 2°54.4 323 12.3 323 11.9
2003-04-14 09:10:56 51°15.55 2°54.38 323.1 12.3 322 12.1
2003-04-14 09:11:02 51°15.57 2°54.36 323.1 12.3 322 12.2
2003-04-14 09:11:06 51°15.58 2°54.35 323.1 12.3 323 12.3
2003-04-14 09:11:12 51°15.6 2°54.33 323.7 12.3 323 12.2
2003-04-14 09:11:16 51°15.61 2°54.32 324.8 12.3 324 12.3
2003-04-14 09:11:22 51°15.63 2°54.3 325.2 12.3 325 12.4
2003-04-14 09:11:26 51°15.64 2°54.29 326.3 12.3 326 12.4
2003-04-14 09:11:32 51°15.65 2°54.27 326.5 12.3 327 12.6
2003-04-14 09:11:36 51°15.67 2°54.26 326.7 12.3 327 12.6
2003-04-14 09:11:42 51°15.68 2°54.24 326.7 12.3 327 12.6
2003-04-14 09:11:46 51°15.7 2°54.23 326.9 12.3 327 12.7
2003-04-14 09:11:52 51°15.71 2°54.21 326.8 12.3 327 12.9
2003-04-14 09:11:56 51°15.72 2°54.2 326.8 12.3 327 12.9
2003-04-14 09:12:02 51°15.74 2°54.18 326.6 12.4 327 13
2003-04-14 09:12:06 51°15.75 2°54.17 326.1 12.4 327 13.1
2003-04-14 09:12:12 51°15.77 2°54.15 326 12.5 326 13.1
2003-04-14 09:12:16 51°15.78 2°54.14 325.9 12.6 326 13.2
2003-04-14 09:12:22 51°15.8 2°54.12 326.6 12.8 326 13.2
2003-04-14 09:12:26 51°15.81 2°54.11 326.3 12.9 326 13.3
2003-04-14 09:12:32 51°15.83 2°54.09 326.5 13.1 326 13.3
2003-04-14 09:12:36 51°15.84 2°54.07 326.6 13.2 327 13.3
2003-04-14 09:12:42 51°15.86 2°54.05 326.7 13.3 327 13.4
2003-04-14 09:12:46 51°15.87 2°54.04 326.8 13.4 327 13.4
2003-04-14 09:12:52 51°15.89 2°54.02 326.6 13.5 326 13.5
2003-04-14 09:12:56 51°15.91 2°54.01 326.2 13.5 326 13.6
2003-04-14 09:13:02 51°15.92 2°53.99 326.1 13.5 326 13.5
2003-04-14 09:13:06 51°15.94 2°53.97 326.2 13.5 326 13.6
2003-04-14 09:13:12 51°15.96 2°53.95 325.9 13.6 326 13.7
2003-04-14 09:13:16 51°15.97 2°53.94 326.3 13.6 326 13.7
2003-04-14 09:13:22 51°15.99 2°53.92 326.3 13.6 326 13.8
2003-04-14 09:13:26 51°16 2°53.91 326 13.6 326 13.9
2003-04-14 09:13:32 51°16.02 2°53.89 326.2 13.6 326 13.9
2003-04-14 09:13:36 51°16.03 2°53.87 326 13.6 326 13.9
2003-04-14 09:13:42 51°16.05 2°53.85 326.3 13.7 326 13.9
2003-04-14 09:13:46 51°16.06 2°53.84 326.1 13.6 326 14
2003-04-14 09:13:52 51°16.08 2°53.82 326.3 13.6 326 14
2003-04-14 09:13:56 51°16.09 2°53.81 326.3 13.6 326 14
2003-04-14 09:14:02 51°16.11 2°53.79 326.2 13.6 326 14
2003-04-14 09:14:06 51°16.12 2°53.77 326.1 13.7 326 14
2003-04-14 09:14:12 51°16.14 2°53.75 326.3 13.7 326 14
2003-04-14 09:14:16 51°16.16 2°53.74 326.4 13.6 326 14.1
2003-04-14 09:14:22 51°16.18 2°53.72 325.9 13.6 326 14
2003-04-14 09:14:26 51°16.19 2°53.71 326.1 13.6 326 14.3
2003-04-14 09:14:32 51°16.21 2°53.69 326.3 13.6 326 14.1
2003-04-14 09:14:36 51°16.22 2°53.67 326.1 13.6 326 14.1
2003-04-14 09:14:42 51°16.24 2°53.65 326.2 13.6 326 14.1
2003-04-14 09:14:46 51°16.25 2°53.64 326.3 13.6 326 14.1
2003-04-14 09:14:52 51°16.27 2°53.62 326.1 13.6 326 14.1
2003-04-14 09:14:56 51°16.28 2°53.61 325.9 13.6 326 14.1
2003-04-14 09:15:02 51°16.3 2°53.59 326.3 13.6 326 14.5
2003-04-14 09:15:06 51°16.31 2°53.57 326.4 13.6 326 14.2
2003-04-14 09:15:12 51°16.33 2°53.55 326.2 13.6 326 14.2
2003-04-14 09:15:16 51°16.34 2°53.54 326.2 13.6 326 14.2
2003-04-14 09:15:22 51°16.36 2°53.52 326.2 13.5 326 14.2
2003-04-14 09:15:26 51°16.38 2°53.5 325.9 13.5 326 14.6
2003-04-14 09:15:32 51°16.39 2°53.48 326.5 13.5 326 14.2
2003-04-14 09:15:36 51°16.41 2°53.47 326 13.5 326 14.1
2003-04-14 09:15:42 51°16.43 2°53.45 326.3 13.5 326 14.2
2003-04-14 09:15:46 51°16.44 2°53.44 326.3 13.5 326 14.2
2003-04-14 09:15:52 51°16.46 2°53.42 326 13.5 326 14.1
2003-04-14 09:15:56 51°16.47 2°53.4 326.1 13.5 326 14.2
2003-04-14 09:16:02 51°16.49 2°53.38 326.4 13.5 326 14.2
2003-04-14 09:16:06 51°16.5 2°53.37 326.4 13.5 326 14.2
2003-04-14 09:16:12 51°16.52 2°53.35 326.3 13.6 326 14.2
2003-04-14 09:16:16 51°16.53 2°53.34 326.2 13.5 326 14.2
2003-04-14 09:16:22 51°16.55 2°53.32 326 13.5 325 14.3
2003-04-14 09:16:26 51°16.56 2°53.3 326.2 13.5 326 14.5
2003-04-14 09:16:32 51°16.58 2°53.28 326.5 13.5 326 14.3
2003-04-14 09:16:36 51°16.59 2°53.27 326.2 13.5 325 14.3
2003-04-14 09:16:42 51°16.61 2°53.25 326.3 13.5 325 14.3
2003-04-14 09:16:46 51°16.62 2°53.23 325.9 13.5 325 14.2
2003-04-14 09:16:52 51°16.64 2°53.21 325.9 13.5 325 14.1
2003-04-14 09:16:56 51°16.65 2°53.2 325.1 13.5 324 14.1
2003-04-14 09:17:02 51°16.67 2°53.18 324.4 13.5 323 14
2003-04-14 09:17:06 51°16.68 2°53.16 323.8 13.4 323 13.9
2003-04-14 09:17:12 51°16.7 2°53.14 323.4 13.4 322 13.9
2003-04-14 09:17:16 51°16.71 2°53.13 322.9 13.4 322 13.8
2003-04-14 09:17:22 51°16.73 2°53.11 322.9 13.4 322 13.7
2003-04-14 09:17:26 51°16.74 2°53.09 322.8 13.4 322 13.6
2003-04-14 09:17:32 51°16.76 2°53.07 323.1 13.4 322 13.5
2003-04-14 09:17:36 51°16.77 2°53.05 323.1 13.4 322 13.4
2003-04-14 09:17:42 51°16.79 2°53.03 322.9 13.4 322 13.3
2003-04-14 09:17:46 51°16.8 2°53.02 323.1 13.4 322 13.1
2003-04-14 09:17:52 51°16.82 2°53 322.9 13.4 322 12.8
2003-04-14 09:17:56 51°16.83 2°52.98 323.1 13.4 322 11.9
2003-04-14 09:18:02 51°16.85 2°52.96 323.2 13.3 322 11.3
2003-04-14 09:18:06 51°16.86 2°52.95 323.1 13.3 322 11.1
2003-04-14 09:18:12 51°16.88 2°52.92 323.1 13.3 322 10.9
2003-04-14 09:18:16 51°16.89 2°52.91 322.8 13.2 322 11.1
2003-04-14 09:18:22 51°16.91 2°52.89 322.8 13.3 322 11.3
2003-04-14 09:18:26 51°16.92 2°52.87 323.1 13.3 322 11.4
2003-04-14 09:18:32 51°16.93 2°52.85 323.1 13.4 322 11.6
2003-04-14 09:18:36 51°16.95 2°52.84 322.9 13.5 322 11.8
2003-04-14 09:18:42 51°16.96 2°52.81 323.2 13.5 322 11.9
2003-04-14 09:18:46 51°16.98 2°52.8 323.2 13.6 322 12.1
2003-04-14 09:18:52 51°16.99 2°52.78 323 13.6 322 12
2003-04-14 09:18:56 51°17.01 2°52.76 323.2 13.6 322 12.2
2003-04-14 09:19:02 51°17.02 2°52.74 322.9 13.6 322 12.4
2003-04-14 09:19:06 51°17.04 2°52.73 323.1 13.6 322 12.4
2003-04-14 09:19:12 51°17.05 2°52.7 323.3 13.6 322 12.7
2003-04-14 09:19:16 51°17.07 2°52.69 323.3 13.6 322 12.8
2003-04-14 09:19:22 51°17.08 2°52.67 323.2 13.6 322 12.6
2003-04-14 09:19:26 51°17.1 2°52.65 323.2 13.6 322 12.2
2003-04-14 09:19:32 51°17.11 2°52.63 322.8 13.6 322 12
2003-04-14 09:19:36 51°17.12 2°52.61 322.1 13.6 321 11.9
2003-04-14 09:19:42 51°17.14 2°52.59 321.4 13.5 321 12.1
2003-04-14 09:19:46 51°17.15 2°52.58 320.7 13.5 320 12
2003-04-14 09:19:52 51°17.17 2°52.55 320.6 13.5 319 12.2
2003-04-14 09:19:56 51°17.18 2°52.54 320 13.5 319 12.3
2003-04-14 09:20:02 51°17.2 2°52.51 320 13.5 319 12.3
2003-04-14 09:20:06 51°17.21 2°52.5 319.8 13.5 319 12.3
2003-04-14 09:20:12 51°17.23 2°52.47 319.8 13.6 319 12.4
2003-04-14 09:20:16 51°17.24 2°52.46 320 13.6 319 12.5
2003-04-14 09:20:22 51°17.26 2°52.44 320 13.6 319 12.5
2003-04-14 09:20:26 51°17.27 2°52.42 320 13.6 319 12.6
2003-04-14 09:20:32 51°17.28 2°52.4 320 13.6 319 12.8
2003-04-14 09:20:36 51°17.29 2°52.38 319.2 13.6 318 12.8
2003-04-14 09:20:42 51°17.31 2°52.35 318.6 13.6 317 12.7
2003-04-14 09:20:46 51°17.32 2°52.34 317.7 13.6 317 12.7
2003-04-14 09:20:52 51°17.34 2°52.31 317.6 13.5 317 12.7
2003-04-14 09:20:56 51°17.35 2°52.3 317.3 13.5 316 12.9
2003-04-14 09:21:02 51°17.36 2°52.27 316.9 13.5 316 12.8
2003-04-14 09:21:06 51°17.38 2°52.26 317.1 13.5 316 13
2003-04-14 09:21:12 51°17.39 2°52.23 316.7 13.5 316 13
2003-04-14 09:21:16 51°17.4 2°52.21 316.9 13.6 316 12.9
2003-04-14 09:21:22 51°17.42 2°52.19 316.8 13.6 316 13.1
2003-04-14 09:21:26 51°17.43 2°52.17 316.4 13.5 316 13
2003-04-14 09:21:32 51°17.45 2°52.15 316.8 13.5 315 12.8
2003-04-14 09:21:36 51°17.46 2°52.13 317.1 13.5 316 13
2003-04-14 09:21:42 51°17.47 2°52.1 317.2 13.5 315 12.9
2003-04-14 09:21:46 51°17.48 2°52.09 317.1 13.5 316 13
2003-04-14 09:21:52 51°17.5 2°52.06 317 13.5 315 13
2003-04-14 09:21:56 51°17.51 2°52.05 316.8 13.5 316 13
2003-04-14 09:22:02 51°17.53 2°52.02 316.7 13.5 315 13.1
2003-04-14 09:22:06 51°17.54 2°52 317.1 13.6 316 13
2003-04-14 09:22:12 51°17.55 2°51.98 317 13.5 315 13
2003-04-14 09:22:16 51°17.56 2°51.96 316.9 13.5 315 13.1
2003-04-14 09:22:22 51°17.58 2°51.94 316.7 13.6 315 13
2003-04-14 09:22:26 51°17.59 2°51.92 317.3 13.6 316 12.9
2003-04-14 09:22:32 51°17.61 2°51.89 317.1 13.5 315 12.9
2003-04-14 09:22:36 51°17.62 2°51.88 317 13.5 315 13
2003-04-14 09:22:42 51°17.63 2°51.85 316.8 13.5 315 13
2003-04-14 09:22:46 51°17.64 2°51.84 317.1 13.5 315 12.8
2003-04-14 09:22:52 51°17.66 2°51.81 317.1 13.5 315 12.9
2003-04-14 09:22:56 51°17.67 2°51.79 316.8 13.5 315 12.6
2003-04-14 09:23:02 51°17.69 2°51.77 317.1 13.5 315 12.7
2003-04-14 09:23:06 51°17.7 2°51.75 317.3 13.4 316 12.6
2003-04-14 09:23:12 51°17.71 2°51.73 317.1 13.4 315 12.5
2003-04-14 09:23:16 51°17.72 2°51.71 317 13.4 315 12.7
2003-04-14 09:23:22 51°17.74 2°51.68 317.1 13.4 315 12.7
2003-04-14 09:23:26 51°17.75 2°51.67 316.8 13.4 315 12.7
2003-04-14 09:23:32 51°17.76 2°51.64 317.2 13.4 315 12.6
2003-04-14 09:23:36 51°17.78 2°51.63 316.8 13.4 315 12.6
2003-04-14 09:23:42 51°17.79 2°51.6 317.2 13.4 316 12.6
2003-04-14 09:23:46 51°17.8 2°51.58 316.9 13.4 315 12.6
2003-04-14 09:23:52 51°17.82 2°51.56 317.1 13.4 315 12.8
2003-04-14 09:23:56 51°17.83 2°51.54 317.6 13.5 316 12.6
2003-04-14 09:24:02 51°17.84 2°51.52 317.1 13.5 315 12.8
2003-04-14 09:24:06 51°17.86 2°51.5 317.3 13.5 316 12.8
2003-04-14 09:24:12 51°17.87 2°51.48 317.1 13.5 315 13
2003-04-14 09:24:16 51°17.88 2°51.46 317.1 13.5 316 13
2003-04-14 09:24:22 51°17.9 2°51.43 317 13.5 315 13
2003-04-14 09:24:26 51°17.91 2°51.42 316.8 13.5 315 13.1
2003-04-14 09:24:32 51°17.92 2°51.39 316.9 13.4 315 13.2
2003-04-14 09:24:36 51°17.93 2°51.37 316.8 13.4 315 13.3
2003-04-14 09:24:42 51°17.95 2°51.35 317.2 13.5 315 13.4
2003-04-14 09:24:46 51°17.96 2°51.33 317.1 13.5 315 13.5
2003-04-14 09:24:52 51°17.98 2°51.31 317.2 13.5 316 13.6
2003-04-14 09:24:56 51°17.99 2°51.29 317.2 13.5 316 13.6
2003-04-14 09:25:02 51°18 2°51.27 317.4 13.5 316 13.9
2003-04-14 09:25:06 51°18.01 2°51.25 317.6 13.5 316 14
2003-04-14 09:25:12 51°18.03 2°51.23 317.6 13.5 316 14
2003-04-14 09:25:16 51°18.04 2°51.21 317.3 13.5 316 14.2
2003-04-14 09:25:22 51°18.06 2°51.18 317 13.5 316 14.3
2003-04-14 09:25:26 51°18.07 2°51.17 317.3 13.5 316 14.4
2003-04-14 09:25:32 51°18.08 2°51.14 317.1 13.5 316 14.5
2003-04-14 09:25:36 51°18.1 2°51.13 317.2 13.5 316 14.7
2003-04-14 09:25:42 51°18.11 2°51.1 317.2 13.5 316 14.8
2003-04-14 09:25:46 51°18.12 2°51.08 317.1 13.5 316 14.9
2003-04-14 09:25:52 51°18.14 2°51.06 317.6 13.5 316 15.1
2003-04-14 09:25:56 51°18.15 2°51.04 317.4 13.5 316 15.1
2003-04-14 09:26:02 51°18.17 2°51.02 317.1 13.5 317 15.2
2003-04-14 09:26:06 51°18.18 2°51 317.1 13.5 317 15.3
2003-04-14 09:26:12 51°18.19 2°50.98 317.1 13.6 317 15.4
2003-04-14 09:26:16 51°18.2 2°50.96 317.1 13.5 316 15.5
2003-04-14 09:26:22 51°18.22 2°50.94 317 13.6 316 15.5
2003-04-14 09:26:26 51°18.23 2°50.92 317 13.6 316 15.6
2003-04-14 09:26:32 51°18.25 2°50.89 317 13.6 317 15.7
2003-04-14 09:26:36 51°18.26 2°50.88 317.1 13.6 316 15.8
2003-04-14 09:26:42 51°18.28 2°50.85 316.7 13.6 317 15.8
2003-04-14 09:26:46 51°18.29 2°50.84 317.1 13.6 317 15.9
2003-04-14 09:26:52 51°18.3 2°50.81 317.2 13.6 317 16.1
2003-04-14 09:26:56 51°18.31 2°50.8 317.4 13.6 317 16.1
2003-04-14 09:27:02 51°18.33 2°50.77 317.2 13.6 317 16.1
2003-04-14 09:27:06 51°18.34 2°50.75 317.1 13.6 317 16.2
2003-04-14 09:27:12 51°18.36 2°50.73 317.1 13.6 317 16.2
2003-04-14 09:27:16 51°18.37 2°50.71 317.1 13.6 317 16.3
2003-04-14 09:27:22 51°18.38 2°50.69 317.3 13.6 317 16.4
2003-04-14 09:27:26 51°18.4 2°50.67 317.2 13.6 317 16.4
2003-04-14 09:27:32 51°18.41 2°50.65 317.4 13.6 317 16.6
2003-04-14 09:27:36 51°18.42 2°50.63 317 13.6 317 16.6
2003-04-14 09:27:42 51°18.44 2°50.61 317 13.6 317 16.7
2003-04-14 09:27:46 51°18.45 2°50.59 317.3 13.6 317 16.7
2003-04-14 09:27:52 51°18.47 2°50.57 317.5 13.6 317 16.9
2003-04-14 09:27:56 51°18.48 2°50.55 317.1 13.6 317 16.9
2003-04-14 09:28:02 51°18.5 2°50.52 317.4 13.6 317 16.9
2003-04-14 09:28:06 51°18.51 2°50.51 317.5 13.6 317 17
2003-04-14 09:28:12 51°18.52 2°50.48 317.1 13.6 317 16.9
2003-04-14 09:28:16 51°18.53 2°50.47 317.1 13.6 317 17
2003-04-14 09:28:22 51°18.55 2°50.44 317.2 13.6 317 16.9
2003-04-14 09:28:26 51°18.56 2°50.43 317.7 13.6 317 17.1
2003-04-14 09:28:32 51°18.58 2°50.4 317.7 13.6 318 17
2003-04-14 09:28:36 51°18.59 2°50.39 317.4 13.6 317 17.1
2003-04-14 09:28:42 51°18.61 2°50.36 317.7 13.7 318 17.1
2003-04-14 09:28:46 51°18.62 2°50.34 317.2 13.6 317 17
2003-04-14 09:28:52 51°18.63 2°50.32 317.3 13.6 317 17.1
2003-04-14 09:28:56 51°18.65 2°50.3 317.1 13.6 317 17
2003-04-14 09:29:02 51°18.66 2°50.28 317.1 13.6 317 17
2003-04-14 09:29:06 51°18.67 2°50.26 317.3 13.6 317 16.9
2003-04-14 09:29:12 51°18.69 2°50.24 317.2 13.5 317 16.8
2003-04-14 09:29:16 51°18.7 2°50.22 317 13.5 317 16.7
2003-04-14 09:29:22 51°18.72 2°50.2 317.1 13.5 317 16.8
2003-04-14 09:29:26 51°18.73 2°50.18 317.1 13.5 317 16.4
2003-04-14 09:29:32 51°18.74 2°50.16 317.2 13.5 316 16.5
2003-04-14 09:29:36 51°18.75 2°50.14 317.1 13.5 316 16.2
2003-04-14 09:29:42 51°18.77 2°50.11 316.5 13.5 316 16.1
2003-04-14 09:29:46 51°18.78 2°50.1 316.5 13.5 316 15.9
2003-04-14 09:29:52 51°18.8 2°50.07 317.1 13.5 316 15.7
2003-04-14 09:29:56 51°18.81 2°50.06 317.1 13.4 316 15.7
2003-04-14 09:30:02 51°18.82 2°50.03 317.1 13.4 316 15.6
2003-04-14 09:30:06 51°18.84 2°50.02 317.2 13.5 316 15.4
2003-04-14 09:30:12 51°18.85 2°49.99 317.6 13.4 317 15.3
2003-04-14 09:30:16 51°18.86 2°49.98 317.2 13.4 316 15.2
2003-04-14 09:30:22 51°18.88 2°49.95 317.2 13.4 316 15.2
2003-04-14 09:30:26 51°18.89 2°49.93 317.2 13.4 316 15.1
2003-04-14 09:30:32 51°18.9 2°49.91 317.2 13.4 316 14.7
2003-04-14 09:30:36 51°18.92 2°49.89 317.1 13.4 316 14.2
2003-04-14 09:30:42 51°18.93 2°49.87 317.2 13.3 316 13.9
2003-04-14 09:30:46 51°18.94 2°49.85 317.1 13.3 316 13.7
2003-04-14 09:30:52 51°18.96 2°49.83 317.5 13.3 316 13.7
2003-04-14 09:30:56 51°18.97 2°49.81 317.4 13.2 316 13.6
2003-04-14 09:31:02 51°18.98 2°49.79 317.5 13.2 316 13.6
2003-04-14 09:31:06 51°18.99 2°49.77 317 13.2 316 13.5
2003-04-14 09:31:12 51°19.01 2°49.75 317.3 13.3 316 13.5
2003-04-14 09:31:16 51°19.02 2°49.73 317.4 13.3 316 13.5
2003-04-14 09:31:22 51°19.04 2°49.71 317.4 13.3 316 13.5
2003-04-14 09:31:26 51°19.05 2°49.69 317.6 13.3 316 13.4
2003-04-14 09:31:32 51°19.06 2°49.66 317.3 13.3 316 13.7
2003-04-14 09:31:36 51°19.07 2°49.65 317 13.3 316 13.9
2003-04-14 09:31:42 51°19.09 2°49.62 317.3 13.3 316 14.1
2003-04-14 09:31:46 51°19.1 2°49.61 317.2 13.4 316 14.2
2003-04-14 09:31:52 51°19.12 2°49.58 317.1 13.4 316 14.3
2003-04-14 09:31:56 51°19.13 2°49.57 317.4 13.4 316 14.4
2003-04-14 09:32:02 51°19.14 2°49.54 317.7 13.3 316 14.4
2003-04-14 09:32:06 51°19.15 2°49.53 317.7 13.3 316 14.6
2003-04-14 09:32:12 51°19.17 2°49.5 317.4 13.3 316 15
2003-04-14 09:32:16 51°19.18 2°49.48 317.4 13.3 316 15.2
2003-04-14 09:32:22 51°19.2 2°49.46 317.5 13.4 316 15.5
2003-04-14 09:32:26 51°19.21 2°49.44 317.1 13.4 316 15.7
2003-04-14 09:32:32 51°19.22 2°49.42 317 13.4 316 15.9
2003-04-14 09:32:36 51°19.23 2°49.4 317.1 13.4 316 16
2003-04-14 09:32:42 51°19.25 2°49.38 317.2 13.5 316 16.1
2003-04-14 09:32:46 51°19.26 2°49.36 317.6 13.5 316 16.3
2003-04-14 09:32:52 51°19.28 2°49.34 317.4 13.5 316 16.3
2003-04-14 09:32:56 51°19.29 2°49.32 317.4 13.5 316 16.4
2003-04-14 09:33:02 51°19.3 2°49.29 317.3 13.5 316 16.4
2003-04-14 09:33:06 51°19.32 2°49.28 317.9 13.5 316 16.6
2003-04-14 09:33:12 51°19.33 2°49.25 316.9 13.4 316 16.6
2003-04-14 09:33:16 51°19.34 2°49.24 317.1 13.4 316 16.5
2003-04-14 09:33:22 51°19.36 2°49.21 317.9 13.4 316 16.6
2003-04-14 09:33:26 51°19.37 2°49.19 317.6 13.4 316 16.4
2003-04-14 09:33:32 51°19.39 2°49.17 317.4 13.4 316 16.7
2003-04-14 09:33:36 51°19.4 2°49.15 317.5 13.4 317 16.8
2003-04-14 09:33:42 51°19.41 2°49.13 317.4 13.4 316 17.2
2003-04-14 09:33:46 51°19.42 2°49.11 317.6 13.3 316 17.6
2003-04-14 09:33:52 51°19.43 2°49.09 315.7 12.8 313 17.9
2003-04-14 09:33:56 51°19.44 2°49.07 305.8 12 306 18.4
2003-04-14 09:34:02 51°19.44 2°49.04 294.6 10.6 293 18.6
2003-04-14 09:34:06 51°19.44 2°49.03 283.3 9.8 284 18.7
2003-04-14 09:34:12 51°19.44 2°49.01 271.7 8.8 270 18.9
2003-04-14 09:34:16 51°19.44 2°49 262.9 8.2 259 19
2003-04-14 09:34:22 51°19.43 2°48.98 249.9 7.5 246 19.2
2003-04-14 09:34:26 51°19.42 2°48.97 239.8 7 237 19.2
2003-04-14 09:34:32 51°19.42 2°48.96 230 6.6 224 19.2
2003-04-14 09:34:36 51°19.41 2°48.96 221.6 6.2 216 19.3
2003-04-14 09:34:42 51°19.4 2°48.95 212.1 5.8 204 19.3
2003-04-14 09:34:46 51°19.39 2°48.95 204 5.6 196 19.3
2003-04-14 09:34:52 51°19.39 2°48.95 195.2 5.4 183 19.2
2003-04-14 09:34:56 51°19.38 2°48.96 186.9 5.3 176 19.1
2003-04-14 09:35:02 51°19.37 2°48.96 178.5 5.3 165 19
2003-04-14 09:35:06 51°19.37 2°48.97 170.5 5.2 158 19
2003-04-14 09:35:12 51°19.36 2°48.98 162.2 5.3 148 18.9
2003-04-14 09:35:16 51°19.36 2°48.98 154.4 5.3 141 18.8
2003-04-14 09:35:22 51°19.35 2°48.99 147.1 5.4 134 18.7
2003-04-14 09:35:26 51°19.35 2°49 141.9 5.4 130 18.6
2003-04-14 09:35:32 51°19.34 2°49.01 139.7 5.1 126 18.5
2003-04-14 09:35:36 51°19.34 2°49.02 138.4 4.7 124 18.4
2003-04-14 09:35:42 51°19.34 2°49.03 136.3 3.9 120 18.3
2003-04-14 09:35:46 51°19.34 2°49.03 132.8 3.3 116 18.1
2003-04-14 09:35:52 51°19.34 2°49.03 128.6 2.4 107 18.1
2003-04-14 09:35:56 51°19.34 2°49.04 124.3 1.8 99 17.9
2003-04-14 09:36:02 51°19.34 2°49.04 121.3 1 80 18
2003-04-14 09:36:06 51°19.34 2°49.04 119.4 0.7 52 18
2003-04-14 09:36:12 51°19.34 2°49.04 118.3 0.6 7 18
2003-04-14 09:36:16 51°19.34 2°49.04 117.8 0.6 2 18
2003-04-14 09:36:22 51°19.34 2°49.04 117.9 0.6 15 18
2003-04-14 09:36:26 51°19.34 2°49.04 118.2 0.6 36 6.5
2003-04-14 09:36:32 51°19.34 2°49.04 117.2 0.8 67 -999
2003-04-14 09:36:36 51°19.34 2°49.04 115.5 1 78 -999
2003-04-14 09:36:42 51°19.34 2°49.05 111.7 1.7 89 -999
2003-04-14 09:36:46 51°19.34 2°49.06 106.8 2.4 92 -999
2003-04-14 09:36:52 51°19.34 2°49.07 100.3 3.4 88 17.6
2003-04-14 09:36:56 51°19.34 2°49.08 92.8 3.9 84 17.5
2003-04-14 09:37:02 51°19.35 2°49.09 83.1 4.2 76 17.3
2003-04-14 09:37:06 51°19.35 2°49.09 76 4.2 72 17.2
2003-04-14 09:37:12 51°19.35 2°49.1 72.4 3.8 67 17.1
2003-04-14 09:37:16 51°19.35 2°49.1 69.1 3.4 64 17.2
2003-04-14 09:37:22 51°19.35 2°49.11 65.1 2.7 61 17.2
2003-04-14 09:37:26 51°19.35 2°49.11 61.6 2.3 60 17.1
2003-04-14 09:37:32 51°19.36 2°49.12 56.6 1.8 58 17
2003-04-14 09:37:36 51°19.36 2°49.12 52.9 1.5 57 16.9
2003-04-14 09:37:42 51°19.36 2°49.12 50 1.1 57 16.9
2003-04-14 09:37:46 51°19.36 2°49.12 48.2 0.7 65 16.9
2003-04-14 09:37:52 51°19.36 2°49.12 45.9 0.3 120 17
2003-04-14 09:37:56 51°19.36 2°49.12 43.2 0.3 152 17
2003-04-14 09:38:02 51°19.36 2°49.12 41.3 0.3 152 -999
2003-04-14 09:38:06 51°19.36 2°49.12 38.7 0.3 140 -999
2003-04-14 09:38:12 51°19.36 2°49.12 36.9 0.3 124 -999
2003-04-14 09:38:16 51°19.36 2°49.12 35.5 0.4 116 -999
2003-04-14 09:38:22 51°19.35 2°49.12 34.7 0.4 111 17.1
2003-04-14 09:38:26 51°19.35 2°49.12 33.9 0.4 109 17.1
2003-04-14 09:38:32 51°19.35 2°49.13 33.1 0.5 104 -999
2003-04-14 09:38:36 51°19.35 2°49.13 32.5 0.5 101 17.1
2003-04-14 09:38:42 51°19.35 2°49.13 31.9 0.5 97 -999
2003-04-14 09:38:46 51°19.35 2°49.13 31.3 0.5 96 -999
2003-04-14 09:38:52 51°19.35 2°49.13 30.6 0.5 92 16.8
2003-04-14 09:38:56 51°19.35 2°49.13 30.2 0.5 92 4.9
2003-04-14 09:39:02 51°19.35 2°49.13 29.7 0.6 92 5.2
2003-04-14 09:39:06 51°19.35 2°49.13 29.2 0.6 90 16.7
2003-04-14 09:39:12 51°19.35 2°49.14 29 0.6 91 5.7
2003-04-14 09:39:16 51°19.35 2°49.14 28.9 0.6 90 5.3
2003-04-14 09:39:22 51°19.35 2°49.14 28.9 0.6 89 5.7
2003-04-14 09:39:26 51°19.35 2°49.14 28.6 0.6 91 5.5
2003-04-14 09:39:32 51°19.35 2°49.14 28.5 0.6 90 16.8
2003-04-14 09:39:36 51°19.35 2°49.14 28.1 0.6 89 16.7
2003-04-14 09:39:42 51°19.35 2°49.14 28 0.6 86 16.7
2003-04-14 09:39:46 51°19.35 2°49.14 27.9 0.6 86 16.7
2003-04-14 09:39:52 51°19.35 2°49.15 27.8 0.6 84 16.7
2003-04-14 09:39:56 51°19.35 2°49.15 27.6 0.6 85 16.7
2003-04-14 09:40:02 51°19.35 2°49.15 27.3 0.6 86 16.7
2003-04-14 09:40:06 51°19.35 2°49.15 27 0.6 85 16.7
2003-04-14 09:40:12 51°19.35 2°49.15 26.8 0.6 83 16.7
2003-04-14 09:40:16 51°19.35 2°49.15 26.1 0.6 82 16.7
2003-04-14 09:40:22 51°19.36 2°49.15 25.8 0.5 77 16.7
2003-04-14 09:40:26 51°19.36 2°49.15 25 0.6 78 16.8
2003-04-14 09:40:32 51°19.36 2°49.16 24.4 0.5 75 16.7
2003-04-14 09:40:36 51°19.36 2°49.16 23.7 0.6 73 16.8
2003-04-14 09:40:42 51°19.36 2°49.16 22.8 0.6 70 16.8
2003-04-14 09:40:46 51°19.36 2°49.16 21.8 0.6 71 16.8
2003-04-14 09:40:52 51°19.36 2°49.16 20.8 0.6 71 16.7
2003-04-14 09:40:56 51°19.36 2°49.16 19.7 0.6 70 16.7
2003-04-14 09:41:02 51°19.36 2°49.16 18.4 0.6 65 16.7
2003-04-14 09:41:06 51°19.36 2°49.16 17.3 0.6 62 16.6
2003-04-14 09:41:12 51°19.36 2°49.17 16.1 0.6 64 16.5
2003-04-14 09:41:16 51°19.36 2°49.17 14.8 0.6 63 16.6
2003-04-14 09:41:22 51°19.36 2°49.17 13.5 0.6 61 16.6
2003-04-14 09:41:26 51°19.36 2°49.17 12.1 0.6 61 16.6
2003-04-14 09:41:32 51°19.36 2°49.17 10.6 0.6 59 16.6
2003-04-14 09:41:36 51°19.36 2°49.17 9.4 0.7 58 16.7
2003-04-14 09:41:42 51°19.36 2°49.17 8.1 0.7 57 16.8
2003-04-14 09:41:46 51°19.36 2°49.17 6.7 0.7 56 16.8
2003-04-14 09:41:52 51°19.36 2°49.17 5.8 0.7 56 16.8
2003-04-14 09:41:56 51°19.36 2°49.18 4.7 0.7 56 16.8
2003-04-14 09:42:02 51°19.36 2°49.18 3.7 0.7 53 16.8
2003-04-14 09:42:06 51°19.36 2°49.18 2.8 0.7 53 16.7
2003-04-14 09:42:12 51°19.36 2°49.18 1.2 0.7 55 16.7
2003-04-14 09:42:16 51°19.36 2°49.18 359.9 0.7 55 16.7
2003-04-14 09:42:22 51°19.37 2°49.18 358.5 0.7 56 16.5
2003-04-14 09:42:26 51°19.37 2°49.18 357.3 0.7 55 16.5
2003-04-14 09:42:32 51°19.37 2°49.19 356.2 0.7 53 16.7
2003-04-14 09:42:36 51°19.37 2°49.19 354.9 0.7 52 16.8
2003-04-14 09:42:42 51°19.37 2°49.19 354 0.7 51 16.8
2003-04-14 09:42:46 51°19.37 2°49.19 353.2 0.7 51 16.8
2003-04-14 09:42:52 51°19.37 2°49.19 352.3 0.8 50 16.9
2003-04-14 09:42:56 51°19.37 2°49.19 351.2 0.8 50 16.9
2003-04-14 09:43:02 51°19.37 2°49.19 350.4 0.8 50 16.9
2003-04-14 09:43:06 51°19.37 2°49.19 349.8 0.8 49 16.9
2003-04-14 09:43:12 51°19.37 2°49.2 348.8 0.8 49 16.8
2003-04-14 09:43:16 51°19.37 2°49.2 347.9 0.8 48 16.8
2003-04-14 09:43:22 51°19.37 2°49.2 347.4 0.8 47 16.7
2003-04-14 09:43:26 51°19.37 2°49.2 346.9 0.8 47 16.7
2003-04-14 09:43:32 51°19.38 2°49.2 346.2 0.8 46 16.8
2003-04-14 09:43:36 51°19.38 2°49.2 345.8 0.8 45 16.8
2003-04-14 09:43:42 51°19.38 2°49.2 345.3 0.8 44 16.7
2003-04-14 09:43:46 51°19.38 2°49.2 345 0.8 44 16.7
2003-04-14 09:43:52 51°19.38 2°49.21 344.7 0.8 44 16.9
2003-04-14 09:43:56 51°19.38 2°49.21 344 0.7 44 17
2003-04-14 09:44:02 51°19.38 2°49.21 342.8 0.7 48 16.8
2003-04-14 09:44:06 51°19.38 2°49.21 341.9 0.7 49 16.7
2003-04-14 09:44:12 51°19.38 2°49.21 341.3 0.7 47 16.7
2003-04-14 09:44:16 51°19.38 2°49.21 340.6 0.7 47 16.7
2003-04-14 09:44:22 51°19.38 2°49.21 339.9 0.8 48 16.9
2003-04-14 09:44:26 51°19.38 2°49.21 339.3 0.8 47 17
2003-04-14 09:44:32 51°19.38 2°49.22 338.9 0.8 47 17
2003-04-14 09:44:36 51°19.39 2°49.22 338.6 0.8 46 16.9
2003-04-14 09:44:42 51°19.39 2°49.22 338.4 0.8 45 17
2003-04-14 09:44:46 51°19.39 2°49.22 338.1 0.8 44 17
2003-04-14 09:44:52 51°19.39 2°49.22 338 0.8 43 17
2003-04-14 09:44:56 51°19.39 2°49.22 337.9 0.8 43 16.9
2003-04-14 09:45:02 51°19.39 2°49.22 337.8 0.8 41 17
2003-04-14 09:45:06 51°19.39 2°49.22 337.8 0.8 40 17.1
2003-04-14 09:45:12 51°19.39 2°49.22 337.8 0.8 40 17.1
2003-04-14 09:45:16 51°19.39 2°49.23 338.1 0.8 40 17.2
2003-04-14 09:45:22 51°19.39 2°49.23 338.1 0.8 40 17.1
2003-04-14 09:45:26 51°19.39 2°49.23 338.1 0.8 41 17.1
2003-04-14 09:45:32 51°19.39 2°49.23 338.2 0.8 40 17.2
2003-04-14 09:45:36 51°19.4 2°49.23 337.7 0.8 39 17.1
2003-04-14 09:45:42 51°19.4 2°49.23 337.3 0.8 41 17.2
2003-04-14 09:45:46 51°19.4 2°49.23 336.8 0.8 42 17.1
2003-04-14 09:45:52 51°19.4 2°49.23 336.7 0.8 43 17.1
2003-04-14 09:45:56 51°19.4 2°49.23 336.7 0.8 43 17.1
2003-04-14 09:46:02 51°19.4 2°49.24 336.5 0.7 41 17
2003-04-14 09:46:06 51°19.4 2°49.24 336.5 0.7 43 17
2003-04-14 09:46:12 51°19.4 2°49.24 336.2 0.7 45 17.3
2003-04-14 09:46:16 51°19.4 2°49.24 335.7 0.7 45 17.3
2003-04-14 09:46:22 51°19.4 2°49.24 335.4 0.7 46 17.3
2003-04-14 09:46:26 51°19.4 2°49.24 335.2 0.8 45 17.3
2003-04-14 09:46:32 51°19.4 2°49.24 335.3 0.8 45 17.3
2003-04-14 09:46:36 51°19.4 2°49.24 335.2 0.8 44 17.3
2003-04-14 09:46:42 51°19.41 2°49.25 335.3 0.8 44 17.2
2003-04-14 09:46:46 51°19.41 2°49.25 335.5 0.8 44 17.4
2003-04-14 09:46:52 51°19.41 2°49.25 335.5 0.8 42 17.2
2003-04-14 09:46:56 51°19.41 2°49.25 336.2 0.8 43 17.3
2003-04-14 09:47:02 51°19.41 2°49.25 336.2 0.8 41 17.3
2003-04-14 09:47:06 51°19.41 2°49.25 336.5 0.8 42 17.2
2003-04-14 09:47:12 51°19.41 2°49.25 336.9 0.8 39 17.2
2003-04-14 09:47:16 51°19.41 2°49.25 337.3 0.8 40 17.3
2003-04-14 09:47:22 51°19.41 2°49.26 337.6 0.8 41 17.4
2003-04-14 09:47:26 51°19.41 2°49.26 337.7 0.7 40 17.4
2003-04-14 09:47:32 51°19.41 2°49.26 338 0.8 43 17.4
2003-04-14 09:47:36 51°19.41 2°49.26 338.2 0.8 42 17.3
2003-04-14 09:47:42 51°19.42 2°49.26 338.6 0.9 41 17.3
2003-04-14 09:47:46 51°19.42 2°49.26 338.8 0.9 40 17.4
2003-04-14 09:47:52 51°19.42 2°49.26 338.9 0.9 39 17.4
2003-04-14 09:47:56 51°19.42 2°49.26 339.2 0.9 37 17.4
2003-04-14 09:48:02 51°19.42 2°49.26 339.3 0.9 37 17.4
2003-04-14 09:48:06 51°19.42 2°49.27 339.5 0.9 37 17.3
2003-04-14 09:48:12 51°19.42 2°49.27 339.7 0.9 37 17.5
2003-04-14 09:48:16 51°19.42 2°49.27 339.9 1 34 17.5
2003-04-14 09:48:22 51°19.43 2°49.27 340.1 1.1 19 17.4
2003-04-14 09:48:26 51°19.43 2°49.27 340.1 1.4 8 17.3
2003-04-14 09:48:32 51°19.43 2°49.27 339.4 2.1 356 17.4
2003-04-14 09:48:36 51°19.44 2°49.27 338.3 2.7 352 17.5
2003-04-14 09:48:42 51°19.44 2°49.26 337.3 3.7 347 17.3
2003-04-14 09:48:46 51°19.45 2°49.26 336.8 4.4 345 17.4
2003-04-14 09:48:52 51°19.46 2°49.25 336.9 5.4 342 17.3
2003-04-14 09:48:56 51°19.47 2°49.25 336.5 6 341 17.4
2003-04-14 09:49:02 51°19.48 2°49.24 335.7 6.8 339 17.5
2003-04-14 09:49:06 51°19.48 2°49.24 333.8 7.3 337 17.6
2003-04-14 09:49:12 51°19.5 2°49.23 331.4 8.1 334 17.7
2003-04-14 09:49:16 51°19.51 2°49.22 328.4 8.7 332 18
2003-04-14 09:49:22 51°19.52 2°49.2 325 9.4 327 18
2003-04-14 09:49:26 51°19.53 2°49.19 322.3 9.9 325 18.4
2003-04-14 09:49:32 51°19.54 2°49.17 319.7 10.5 321 18.7
2003-04-14 09:49:36 51°19.55 2°49.16 316.9 10.8 318 19
2003-04-14 09:49:42 51°19.56 2°49.13 313 11.4 313 19.3
2003-04-14 09:49:46 51°19.57 2°49.11 307.8 11.6 309 19.5
2003-04-14 09:49:52 51°19.58 2°49.09 302.2 12 303 19.7
2003-04-14 09:49:56 51°19.59 2°49.07 299 12.3 300 19.8
2003-04-14 09:50:02 51°19.6 2°49.04 297.1 12.6 297 20
2003-04-14 09:50:06 51°19.6 2°49.02 297.2 12.8 297 20.2
2003-04-14 09:50:12 51°19.61 2°48.99 297.9 13 298 20.3
2003-04-14 09:50:16 51°19.62 2°48.97 299.7 13.1 300 20.5
2003-04-14 09:50:22 51°19.63 2°48.94 303.2 13.3 303 20.7
2003-04-14 09:50:26 51°19.64 2°48.92 304.5 13.3 304 20.9
2003-04-14 09:50:32 51°19.65 2°48.89 304.4 13.4 304 21.1
2003-04-14 09:50:36 51°19.66 2°48.87 303.3 13.3 303 21.2
2003-04-14 09:50:42 51°19.67 2°48.84 301.8 13.3 302 21.4
2003-04-14 09:50:46 51°19.68 2°48.82 301.4 13.4 302 21.5
2003-04-14 09:50:52 51°19.69 2°48.79 301.7 13.4 302 21.9
2003-04-14 09:50:56 51°19.7 2°48.77 301.9 13.4 301 22
2003-04-14 09:51:02 51°19.71 2°48.74 300.7 13.4 301 22.1
2003-04-14 09:51:06 51°19.72 2°48.72 299.4 13.3 300 22.4
2003-04-14 09:51:12 51°19.73 2°48.69 298.4 13.3 299 22.9
2003-04-14 09:51:16 51°19.74 2°48.66 297.7 13.3 298 22.9
2003-04-14 09:51:22 51°19.74 2°48.63 296.2 13.2 295 23.2
2003-04-14 09:51:26 51°19.75 2°48.61 292.6 13.2 293 23.5
2003-04-14 09:51:32 51°19.76 2°48.58 291.5 13.2 291 23.6
2003-04-14 09:51:36 51°19.76 2°48.56 289.4 13.1 289 23.8
2003-04-14 09:51:42 51°19.77 2°48.52 289 13.1 289 24
2003-04-14 09:51:46 51°19.77 2°48.5 287.2 13.1 287 24.1
2003-04-14 09:51:52 51°19.78 2°48.47 286.7 13.1 286 24.4
2003-04-14 09:51:56 51°19.78 2°48.44 284.5 13.1 284 24.4
2003-04-14 09:52:02 51°19.79 2°48.41 282.4 13.1 283 24.7
2003-04-14 09:52:06 51°19.79 2°48.39 281.4 13.1 282 24.7
2003-04-14 09:52:12 51°19.8 2°48.35 284.6 13.1 285 24.8
2003-04-14 09:52:16 51°19.8 2°48.33 286.8 13.1 286 24.7
2003-04-14 09:52:22 51°19.81 2°48.3 288.6 13 289 24.9
2003-04-14 09:52:26 51°19.81 2°48.28 288.6 13 289 25
2003-04-14 09:52:32 51°19.82 2°48.24 287.6 13.1 288 25.1
2003-04-14 09:52:36 51°19.82 2°48.22 287.6 13.1 288 25.1
2003-04-14 09:52:42 51°19.83 2°48.19 286 13.1 286 25
2003-04-14 09:52:46 51°19.83 2°48.16 286.4 13.1 287 25.1
2003-04-14 09:52:52 51°19.84 2°48.13 286.2 13.1 286 25.1
2003-04-14 09:52:56 51°19.84 2°48.11 285.2 13.1 286 25.2
2003-04-14 09:53:02 51°19.85 2°48.08 284.6 12.7 285 25.2
2003-04-14 09:53:06 51°19.85 2°48.06 284.1 12.2 285 25.2
2003-04-14 09:53:12 51°19.85 2°48.03 282.4 11.2 284 25.2
2003-04-14 09:53:16 51°19.86 2°48.01 281.9 10.6 284 25.1
2003-04-14 09:53:22 51°19.86 2°47.99 280.9 9.6 283 25.2
2003-04-14 09:53:26 51°19.86 2°47.98 279.6 9.1 282 25.2
2003-04-14 09:53:32 51°19.86 2°47.96 278.7 8.3 281 25.1
2003-04-14 09:53:36 51°19.86 2°47.94 277 7.9 280 25.2
2003-04-14 09:53:42 51°19.87 2°47.92 274.6 7.3 277 25.3
2003-04-14 09:53:46 51°19.87 2°47.91 272.3 6.9 277 25.2
2003-04-14 09:53:52 51°19.87 2°47.9 270.6 6.4 275 25.2
2003-04-14 09:53:56 51°19.87 2°47.89 269 6.2 275 25.2
2003-04-14 09:54:02 51°19.87 2°47.87 267.8 5.7 272 25.2
2003-04-14 09:54:06 51°19.87 2°47.86 266.1 5.5 272 25.4
2003-04-14 09:54:12 51°19.87 2°47.85 264.2 4.9 270 25.3
2003-04-14 09:54:16 51°19.87 2°47.85 261.7 4.4 270 25.4
2003-04-14 09:54:22 51°19.87 2°47.84 259.8 3.5 268 25.3
2003-04-14 09:54:26 51°19.87 2°47.83 258.3 2.9 270 25.3
2003-04-14 09:54:32 51°19.87 2°47.83 256.4 2 273 25.4
2003-04-14 09:54:36 51°19.87 2°47.83 254 1.5 279 25.2
2003-04-14 09:54:42 51°19.87 2°47.83 252.4 0.9 291 25.1
2003-04-14 09:54:46 51°19.87 2°47.83 250.4 0.7 302 25.3
2003-04-14 09:54:52 51°19.87 2°47.82 249.7 0.7 306 25.3
2003-04-14 09:54:56 51°19.87 2°47.82 249.4 0.7 303 25.4
2003-04-14 09:55:02 51°19.87 2°47.82 249 0.7 298 25.4
2003-04-14 09:55:06 51°19.87 2°47.82 248.7 0.7 297 25.5
2003-04-14 09:55:12 51°19.87 2°47.82 248.1 0.7 294 25.4
2003-04-14 09:55:16 51°19.87 2°47.82 246.7 0.7 293 25.4
2003-04-14 09:55:22 51°19.87 2°47.82 245.5 0.6 294 25.4
2003-04-14 09:55:26 51°19.87 2°47.82 244.2 0.6 292 25.4
2003-04-14 09:55:32 51°19.87 2°47.81 243.1 0.6 289 25.4
2003-04-14 09:55:36 51°19.87 2°47.81 242.2 0.5 290 25.4
2003-04-14 09:55:42 51°19.87 2°47.81 241.3 0.5 289 25.5
2003-04-14 09:55:46 51°19.87 2°47.81 240.3 0.5 291 25.4
2003-04-14 09:55:52 51°19.87 2°47.81 239.3 0.5 291 25.5
2003-04-14 09:55:56 51°19.87 2°47.81 237.9 0.5 291 25.4
2003-04-14 09:56:02 51°19.87 2°47.81 237 0.4 289 25.4
2003-04-14 09:56:06 51°19.87 2°47.81 236.2 0.4 290 25.4
2003-04-14 09:56:12 51°19.87 2°47.81 235.3 0.4 286 25.3
2003-04-14 09:56:16 51°19.88 2°47.81 234.4 0.4 285 25.3
2003-04-14 09:56:22 51°19.88 2°47.81 233.9 0.4 288 25.3
2003-04-14 09:56:26 51°19.88 2°47.81 233.4 0.3 288 25.2
2003-04-14 09:56:32 51°19.88 2°47.8 232.8 0.3 285 25.2
2003-04-14 09:56:36 51°19.88 2°47.8 232.1 0.3 284 25.2
2003-04-14 09:56:42 51°19.88 2°47.8 231.4 0.2 284 25.2
2003-04-14 09:56:46 51°19.88 2°47.8 230.4 0.2 284 25.2
2003-04-14 09:56:52 51°19.88 2°47.8 229.3 0.2 276 25.3
2003-04-14 09:56:56 51°19.88 2°47.8 228.8 0.2 276 25.3
2003-04-14 09:57:02 51°19.88 2°47.8 227.9 0.2 277 25.3
2003-04-14 09:57:06 51°19.88 2°47.8 226.9 0.1 281 25.3
2003-04-14 09:57:12 51°19.88 2°47.8 226.5 0.1 286 25.3
2003-04-14 09:57:16 51°19.88 2°47.8 225.6 0.1 299 25.3
2003-04-14 09:57:22 51°19.88 2°47.8 224.6 0.1 318 25.4
2003-04-14 09:57:26 51°19.88 2°47.8 223.6 0.1 327 25.4
2003-04-14 09:57:32 51°19.88 2°47.8 223   355 25.4
2003-04-14 09:57:36 51°19.88 2°47.8 222.1 0.1 21 25.3
2003-04-14 09:57:42 51°19.88 2°47.8 221.3 0.1 40 25.4
2003-04-14 09:57:46 51°19.88 2°47.8 220.4 0.1 52 25.4
2003-04-14 09:57:52 51°19.88 2°47.8 219.5 0.1 68 25.3
2003-04-14 09:57:56 51°19.88 2°47.8 218.7 0.1 62 25.3
2003-04-14 09:58:02 51°19.88 2°47.8 218 0.1 66 25.3
2003-04-14 09:58:06 51°19.88 2°47.8 217.4 0.1 80 25.2
2003-04-14 09:58:12 51°19.88 2°47.8 216.8 0.1 84 25.2
2003-04-14 09:58:16 51°19.88 2°47.8 216.2 0.1 81 25.2
2003-04-14 09:58:22 51°19.88 2°47.8 215.5 0.2 68 25.3
2003-04-14 09:58:26 51°19.88 2°47.81 214.5 0.2 75 25.2
2003-04-14 09:58:32 51°19.88 2°47.81 214.2 0.2 80 25.2
2003-04-14 09:58:36 51°19.88 2°47.81 213.5 0.2 82 25.3
2003-04-14 09:58:42 51°19.88 2°47.81 212.9 0.2 82 25.3
2003-04-14 09:58:46 51°19.88 2°47.81 212.5 0.2 79 25.4
2003-04-14 09:58:52 51°19.88 2°47.81 211.9 0.3 78 25.4
2003-04-14 09:58:56 51°19.88 2°47.81 211.3 0.3 76 25.4
2003-04-14 09:59:02 51°19.88 2°47.81 210.7 0.3 75 25.4
2003-04-14 09:59:06 51°19.88 2°47.81 210.1 0.3 77 25.4
2003-04-14 09:59:12 51°19.88 2°47.81 209.4 0.3 80 25.3
2003-04-14 09:59:16 51°19.88 2°47.81 208.8 0.3 79 25.3
2003-04-14 09:59:22 51°19.88 2°47.81 208.2 0.3 84 25.3
2003-04-14 09:59:26 51°19.88 2°47.81 207.5 0.3 86 25.3
2003-04-14 09:59:32 51°19.88 2°47.81 206.8 0.3 86 25.2
2003-04-14 09:59:36 51°19.88 2°47.81 206.3 0.4 88 25.2
2003-04-14 09:59:42 51°19.88 2°47.82 205.5 0.4 86 25.3
2003-04-14 09:59:46 51°19.88 2°47.82 205.1 0.4 84 25.3
2003-04-14 09:59:52 51°19.88 2°47.82 204.5 0.4 82 25.3
2003-04-14 09:59:56 51°19.88 2°47.82 203.9 0.4 82 25.3
2003-04-14 10:00:02 51°19.88 2°47.82 203.4 0.4 80 25.3
2003-04-14 10:00:06 51°19.88 2°47.82 202.9 0.4 80 25.4
2003-04-14 10:00:12 51°19.88 2°47.82 202.5 0.5 76 25.4
2003-04-14 10:00:16 51°19.88 2°47.82 202.2 0.5 75 25.3
2003-04-14 10:00:22 51°19.88 2°47.82 201.7 0.5 77 25.3
2003-04-14 10:00:26 51°19.88 2°47.82 201.4 0.5 78 25.3
2003-04-14 10:00:32 51°19.88 2°47.83 201 0.5 81 25.3
2003-04-14 10:00:36 51°19.88 2°47.83 200.4 0.5 80 25.3
2003-04-14 10:00:42 51°19.88 2°47.83 200 0.5 80 25.3
2003-04-14 10:00:46 51°19.88 2°47.83 199.4 0.5 79 25.4
2003-04-14 10:00:52 51°19.88 2°47.83 198.8 0.6 81 25.3
2003-04-14 10:00:56 51°19.88 2°47.83 198.1 0.6 80 25.3
2003-04-14 10:01:02 51°19.88 2°47.83 197.5 0.6 82 25.3
2003-04-14 10:01:06 51°19.88 2°47.83 196.8 0.6 82 25.3
2003-04-14 10:01:12 51°19.88 2°47.84 196.4 0.6 84 25.4
2003-04-14 10:01:16 51°19.88 2°47.84 195.9 0.7 84 25.3
2003-04-14 10:01:22 51°19.88 2°47.84 195.3 0.6 83 25.4
2003-04-14 10:01:26 51°19.88 2°47.84 195 0.6 82 25.3
2003-04-14 10:01:32 51°19.88 2°47.84 194.5 0.6 82 25.2
2003-04-14 10:01:36 51°19.88 2°47.84 194 0.6 80 25.3
2003-04-14 10:01:42 51°19.88 2°47.84 193.6 0.6 81 25.4
2003-04-14 10:01:46 51°19.88 2°47.84 193.1 0.6 80 25.4
2003-04-14 10:01:52 51°19.88 2°47.85 192.8 0.6 80 25.3
2003-04-14 10:01:56 51°19.88 2°47.85 192.5 0.7 80 25.3
2003-04-14 10:02:02 51°19.88 2°47.85 192.1 0.7 80 25.4
2003-04-14 10:02:06 51°19.88 2°47.85 191.7 0.7 79 25.3
2003-04-14 10:02:12 51°19.88 2°47.85 191.3 0.6 78 25.3
2003-04-14 10:02:16 51°19.88 2°47.85 191 0.6 78 25.3
2003-04-14 10:02:22 51°19.88 2°47.85 190.8 0.7 82 25.3
2003-04-14 10:02:26 51°19.88 2°47.86 190.4 0.7 84 25.3
2003-04-14 10:02:32 51°19.88 2°47.86 190.1 0.7 84 25.4
2003-04-14 10:02:36 51°19.88 2°47.86 189.9 0.7 83 25.2
2003-04-14 10:02:42 51°19.88 2°47.86 189.5 0.7 84 25.3
2003-04-14 10:02:46 51°19.88 2°47.86 189.2 0.7 84 25.4
2003-04-14 10:02:52 51°19.88 2°47.86 188.9 0.7 82 25.4
2003-04-14 10:02:56 51°19.88 2°47.86 188.6 0.7 81 25.4
2003-04-14 10:03:02 51°19.88 2°47.87 188.2 0.7 80 25.4
2003-04-14 10:03:06 51°19.88 2°47.87 187.8 0.8 79 25.4
2003-04-14 10:03:12 51°19.88 2°47.87 187.5 0.8 80 25.3
2003-04-14 10:03:16 51°19.88 2°47.87 187.1 0.7 81 25.3
2003-04-14 10:03:22 51°19.88 2°47.87 186.5 0.8 80 25.3
2003-04-14 10:03:26 51°19.88 2°47.87 186.1 0.8 79 25.4
2003-04-14 10:03:32 51°19.88 2°47.88 185.9 0.8 79 25.4
2003-04-14 10:03:36 51°19.88 2°47.88 185.7 0.7 79 25.4
2003-04-14 10:03:42 51°19.88 2°47.88 185.8 0.8 80 25.3
2003-04-14 10:03:46 51°19.88 2°47.88 185.5 0.8 80 25.3
2003-04-14 10:03:52 51°19.89 2°47.88 185.2 0.8 82 25.4
2003-04-14 10:03:56 51°19.89 2°47.88 184.7 0.8 83 25.4
2003-04-14 10:04:02 51°19.89 2°47.89 184.2 0.8 84 25.3
2003-04-14 10:04:06 51°19.89 2°47.89 183.8 0.8 85 25.3
2003-04-14 10:04:12 51°19.89 2°47.89 183.6 0.8 84 25.3
2003-04-14 10:04:16 51°19.89 2°47.89 183.3 0.8 83 25.4
2003-04-14 10:04:22 51°19.89 2°47.89 183.1 0.8 83 25.4
2003-04-14 10:04:26 51°19.89 2°47.89 182.7 0.8 83 25.4
2003-04-14 10:04:32 51°19.89 2°47.9 182.3 0.8 81 25.4
2003-04-14 10:04:36 51°19.89 2°47.9 182.1 0.8 80 25.3
2003-04-14 10:04:42 51°19.89 2°47.9 181.6 0.8 79 25.4
2003-04-14 10:04:46 51°19.89 2°47.9 181.3 0.8 79 25.4
2003-04-14 10:04:52 51°19.89 2°47.9 181.1 0.8 79 25.4
2003-04-14 10:04:56 51°19.89 2°47.91 180.9 0.9 79 25.3
2003-04-14 10:05:02 51°19.89 2°47.91 180.7 0.9 78 25.3
2003-04-14 10:05:06 51°19.89 2°47.91 180.5 0.9 78 25.4
2003-04-14 10:05:12 51°19.89 2°47.91 180.1 0.9 77 25.5
2003-04-14 10:05:16 51°19.89 2°47.91 179.8 0.9 77 25.5
2003-04-14 10:05:22 51°19.89 2°47.91 179.8 0.9 77 25.4
2003-04-14 10:05:26 51°19.89 2°47.92 179.7 0.9 76 25.3
2003-04-14 10:05:32 51°19.89 2°47.92 179.6 0.9 75 25.5
2003-04-14 10:05:36 51°19.89 2°47.92 179.3 0.9 74 25.5
2003-04-14 10:05:42 51°19.89 2°47.92 179.3 0.9 75 25.3
2003-04-14 10:05:46 51°19.89 2°47.92 179.2 0.9 75 25.3
2003-04-14 10:05:52 51°19.89 2°47.93 179.1 0.9 74 25.4
2003-04-14 10:05:56 51°19.89 2°47.93 178.9 0.9 73 25.5
2003-04-14 10:06:02 51°19.89 2°47.93 178.5 0.9 73 25.4
2003-04-14 10:06:06 51°19.89 2°47.93 178.4 0.9 72 25.4
2003-04-14 10:06:12 51°19.89 2°47.93 178.4 0.9 71 25.4
2003-04-14 10:06:16 51°19.89 2°47.93 178.3 0.9 70 25.4
2003-04-14 10:06:22 51°19.89 2°47.94 177.9 0.9 71 25.4
2003-04-14 10:06:26 51°19.89 2°47.94 177.8 0.9 71 25.3
2003-04-14 10:06:32 51°19.89 2°47.94 177.6 0.9 71 25.3
2003-04-14 10:06:36 51°19.89 2°47.94 177.6 0.9 70 25.3
2003-04-14 10:06:42 51°19.89 2°47.94 177.7 0.8 70 25.4
2003-04-14 10:06:46 51°19.89 2°47.95 177.8 0.8 70 25.4
2003-04-14 10:06:52 51°19.9 2°47.95 177.9 0.8 71 25.3
2003-04-14 10:06:56 51°19.9 2°47.95 177.8 0.9 71 25.3
2003-04-14 10:07:02 51°19.9 2°47.95 177.5 0.9 71 25.4
2003-04-14 10:07:06 51°19.9 2°47.95 177 0.9 72 25.4
2003-04-14 10:07:12 51°19.9 2°47.96 176.7 0.9 73 25.4
2003-04-14 10:07:16 51°19.9 2°47.96 176.3 1 73 25.4
2003-04-14 10:07:22 51°19.9 2°47.96 176 1 73 25.4
2003-04-14 10:07:26 51°19.9 2°47.96 175.6 1 72 25.5
2003-04-14 10:07:32 51°19.9 2°47.96 175.3 1 72 25.5
2003-04-14 10:07:36 51°19.9 2°47.96 175 1 72 25.3
2003-04-14 10:07:42 51°19.9 2°47.97 174.7 1 71 25.4
2003-04-14 10:07:46 51°19.9 2°47.97 174.3 1 70 25.4
2003-04-14 10:07:52 51°19.9 2°47.97 174.1 1 71 25.4
2003-04-14 10:07:56 51°19.9 2°47.97 174 0.9 71 25.4
2003-04-14 10:08:02 51°19.9 2°47.97 173.6 1 71 25.5
2003-04-14 10:08:06 51°19.9 2°47.98 173.3 1 71 25.5
2003-04-14 10:08:12 51°19.9 2°47.98 173 1 70 25.3
2003-04-14 10:08:16 51°19.9 2°47.98 172.6 1 69 25.4
2003-04-14 10:08:22 51°19.9 2°47.98 172.4 1 69 25.4
2003-04-14 10:08:26 51°19.9 2°47.98 172.1 1 69 25.5
2003-04-14 10:08:32 51°19.9 2°47.99 171.8 1 69 25.4
2003-04-14 10:08:36 51°19.9 2°47.99 171.5 1 69 25.4
2003-04-14 10:08:42 51°19.91 2°47.99 171.2 1 70 25.4
2003-04-14 10:08:46 51°19.91 2°47.99 170.7 1 70 25.5
2003-04-14 10:08:52 51°19.91 2°47.99 170.5 1 71 25.5
2003-04-14 10:08:56 51°19.91 2°48 170.3 1 70 25.3
2003-04-14 10:09:02 51°19.91 2°48 169.9 1 70 25.3
2003-04-14 10:09:06 51°19.91 2°48 169.8 1 70 25.4
2003-04-14 10:09:12 51°19.91 2°48 169.3 1 71 25.3
2003-04-14 10:09:16 51°19.91 2°48 169.1 1 70 25.4
2003-04-14 10:09:22 51°19.91 2°48.01 168.8 1 70 25.5
2003-04-14 10:09:26 51°19.91 2°48.01 168.4 1 70 25.3
2003-04-14 10:09:32 51°19.91 2°48.01 168.1 1 69 25.3
2003-04-14 10:09:36 51°19.91 2°48.01 167.8 1 69 25.4
2003-04-14 10:09:42 51°19.91 2°48.02 167.5 1 69 25.4
2003-04-14 10:09:46 51°19.91 2°48.02 167.3 1 68 25.5
2003-04-14 10:09:52 51°19.91 2°48.02 167.1 1.1 67 25.4
2003-04-14 10:09:56 51°19.91 2°48.02 166.9 1.1 67 25.4
2003-04-14 10:10:02 51°19.91 2°48.02 166.8 1.1 68 25.5
2003-04-14 10:10:06 51°19.91 2°48.03 166.6 1.1 68 25.4
2003-04-14 10:10:12 51°19.91 2°48.03 166.3 1.1 69 25.4
2003-04-14 10:10:16 51°19.91 2°48.03 166.3 1 69 25.5
2003-04-14 10:10:22 51°19.92 2°48.03 166.4 1.1 68 25.5
2003-04-14 10:10:26 51°19.92 2°48.03 166.3 1.1 66 25.4
2003-04-14 10:10:32 51°19.92 2°48.04 166.4 1 66 25.4
2003-04-14 10:10:36 51°19.92 2°48.04 166.7 1 67 25.5
2003-04-14 10:10:42 51°19.92 2°48.04 166.9 1 68 25.5
2003-04-14 10:10:46 51°19.92 2°48.04 167.1 1 69 25.3
2003-04-14 10:10:52 51°19.92 2°48.05 166.9 1.1 69 25.3
2003-04-14 10:10:56 51°19.92 2°48.05 166.4 1.1 70 25.4
2003-04-14 10:11:02 51°19.92 2°48.05 165.6 1.1 71 25.6
2003-04-14 10:11:06 51°19.92 2°48.05 165.4 1.1 71 25.4
2003-04-14 10:11:12 51°19.92 2°48.05 165.1 1.1 71 25.3
2003-04-14 10:11:16 51°19.92 2°48.06 164.7 1.1 70 25.5
2003-04-14 10:11:22 51°19.92 2°48.06 164.6 1.1 71 25.5
2003-04-14 10:11:26 51°19.92 2°48.06 164.6 1 71 25.5
2003-04-14 10:11:32 51°19.92 2°48.06 164.6 1 72 25.5
2003-04-14 10:11:36 51°19.92 2°48.07 164.5 1.1 71 25.3
2003-04-14 10:11:42 51°19.92 2°48.07 164.4 1.1 71 25.5
2003-04-14 10:11:46 51°19.92 2°48.07 164.3 1.1 70 25.4
2003-04-14 10:11:52 51°19.92 2°48.07 164.1 1.1 69 25.6
2003-04-14 10:11:56 51°19.93 2°48.07 164 1.1 70 25.6
2003-04-14 10:12:02 51°19.93 2°48.08 163.8 1.1 70 25.5
2003-04-14 10:12:06 51°19.93 2°48.08 163.3 1.1 71 25.4